createdAt,value
2018-07-17T00:01:35.137Z,11.67
2018-07-17T00:04:03.889Z,11.93
2018-07-17T00:06:32.605Z,11.93
2018-07-17T00:09:01.288Z,12.07
2018-07-17T00:11:30.551Z,11.70
2018-07-17T00:13:59.258Z,12.00
2018-07-17T00:16:27.963Z,12.80
2018-07-17T00:18:56.656Z,13.10
2018-07-17T00:21:25.344Z,12.77
2018-07-17T00:23:54.054Z,13.27
2018-07-17T00:26:22.754Z,12.53
2018-07-17T00:28:51.460Z,12.97
2018-07-17T00:31:20.255Z,12.87
2018-07-17T00:33:49.034Z,12.83
2018-07-17T00:36:17.711Z,12.80
2018-07-17T00:38:46.444Z,11.93
2018-07-17T00:41:15.098Z,12.80
2018-07-17T00:43:43.905Z,12.07
2018-07-17T00:46:12.581Z,12.10
2018-07-17T00:48:41.277Z,12.77
2018-07-17T00:51:10.020Z,12.77
2018-07-17T00:53:38.736Z,12.43
2018-07-17T00:56:07.544Z,11.87
2018-07-17T00:58:36.330Z,12.13
2018-07-17T01:01:04.088Z,11.57
2018-07-17T01:03:38.049Z,11.43
2018-07-17T01:06:12.005Z,11.70
2018-07-17T01:08:45.900Z,12.70
2018-07-17T01:11:19.878Z,12.23
2018-07-17T01:13:52.458Z,13.70
2018-07-17T01:16:21.144Z,12.13
2018-07-17T01:18:49.828Z,12.30
2018-07-17T01:21:18.489Z,13.07
2018-07-17T01:23:47.168Z,12.17
2018-07-17T01:26:15.854Z,12.87
2018-07-17T01:28:44.568Z,12.40
2018-07-17T01:31:13.513Z,12.30
2018-07-17T01:33:42.203Z,12.80
2018-07-17T01:36:10.932Z,11.77
2018-07-17T01:38:39.680Z,12.00
2018-07-17T01:41:08.386Z,12.67
2018-07-17T01:43:37.116Z,12.83
2018-07-17T01:46:05.903Z,12.37
2018-07-17T01:48:34.831Z,12.10
2018-07-17T01:51:03.547Z,12.67
2018-07-17T01:53:32.290Z,11.87
2018-07-17T01:56:01.022Z,11.70
2018-07-17T01:58:29.792Z,11.43
2018-07-17T02:00:58.542Z,11.67
2018-07-17T02:03:27.289Z,11.63
2018-07-17T02:05:55.976Z,12.27
2018-07-17T02:08:24.627Z,12.87
2018-07-17T02:10:53.386Z,12.60
2018-07-17T02:13:22.064Z,12.13
2018-07-17T02:15:50.779Z,12.37
2018-07-17T02:18:19.455Z,12.30
2018-07-17T02:20:48.124Z,12.60
2018-07-17T02:23:16.918Z,13.10
2018-07-17T02:25:45.620Z,13.20
2018-07-17T02:28:14.294Z,13.03
2018-07-17T02:30:43.062Z,13.73
2018-07-17T02:33:11.756Z,12.67
2018-07-17T02:35:40.445Z,12.80
2018-07-17T02:38:09.150Z,13.77
2018-07-17T02:40:37.832Z,13.20
2018-07-17T02:43:06.551Z,13.23
2018-07-17T02:45:35.222Z,13.47
2018-07-17T02:48:03.957Z,13.00
2018-07-17T02:50:32.625Z,13.57
2018-07-17T02:53:01.344Z,14.07
2018-07-17T02:55:30.043Z,13.63
2018-07-17T02:57:58.710Z,12.93
2018-07-17T03:00:27.425Z,14.17
2018-07-17T03:02:56.112Z,13.90
2018-07-17T03:05:24.923Z,14.47
2018-07-17T03:07:53.623Z,13.17
2018-07-17T03:10:22.380Z,13.17
2018-07-17T03:12:51.094Z,13.43
2018-07-17T03:15:19.799Z,13.60
2018-07-17T03:17:48.516Z,13.27
2018-07-17T03:20:17.261Z,12.60
2018-07-17T03:22:45.920Z,13.20
2018-07-17T03:25:14.607Z,13.10
2018-07-17T03:27:43.300Z,13.70
2018-07-17T03:30:12.040Z,13.23
2018-07-17T03:32:40.860Z,14.00
2018-07-17T03:35:09.581Z,13.83
2018-07-17T03:37:38.284Z,12.73
2018-07-17T03:40:07.190Z,13.23
2018-07-17T03:42:35.932Z,12.83
2018-07-17T03:45:04.749Z,13.07
2018-07-17T03:47:33.552Z,12.70
2018-07-17T03:50:02.301Z,12.67
2018-07-17T03:52:31.024Z,13.07
2018-07-17T03:54:59.725Z,12.20
2018-07-17T03:57:28.464Z,12.77
2018-07-17T03:59:57.184Z,12.57
2018-07-17T04:02:26.701Z,12.43
2018-07-17T04:04:55.481Z,13.33
2018-07-17T04:07:24.201Z,12.40
2018-07-17T04:09:52.903Z,13.67
2018-07-17T04:12:21.615Z,12.83
2018-07-17T04:14:50.396Z,12.63
2018-07-17T04:17:20.177Z,12.80
2018-07-17T04:19:49.003Z,12.47
2018-07-17T04:22:17.772Z,12.63
2018-07-17T04:24:46.817Z,12.20
2018-07-17T04:27:17.585Z,12.00
2018-07-17T04:29:46.503Z,12.43
2018-07-17T04:32:15.317Z,12.00
2018-07-17T04:34:44.015Z,11.70
2018-07-17T04:37:12.751Z,11.93
2018-07-17T04:39:41.473Z,12.13
2018-07-17T04:42:10.255Z,11.33
2018-07-17T04:44:38.955Z,12.20
2018-07-17T04:47:07.665Z,11.80
2018-07-17T04:49:36.431Z,13.23
2018-07-17T04:52:05.149Z,12.67
2018-07-17T04:54:34.256Z,12.43
2018-07-17T04:57:03.030Z,12.23
2018-07-17T04:59:31.716Z,13.30
2018-07-17T05:02:00.457Z,13.00
2018-07-17T05:04:29.193Z,13.83
2018-07-17T05:06:58.031Z,13.93
2018-07-17T05:09:26.754Z,14.93
2018-07-17T05:11:55.473Z,14.83
2018-07-17T05:14:24.156Z,15.30
2018-07-17T05:16:52.811Z,15.23
2018-07-17T05:19:21.484Z,15.00
2018-07-17T05:21:50.464Z,15.97
2018-07-17T05:24:19.239Z,14.93
2018-07-17T05:26:47.987Z,14.70
2018-07-17T05:29:16.775Z,15.00
2018-07-17T05:31:45.525Z,14.53
2018-07-17T05:34:14.331Z,14.60
2018-07-17T05:36:43.033Z,15.07
2018-07-17T05:39:11.766Z,13.77
2018-07-17T05:41:40.487Z,14.67
2018-07-17T05:44:09.275Z,13.40
2018-07-17T05:46:38.015Z,13.97
2018-07-17T05:49:06.796Z,13.07
2018-07-17T05:51:35.516Z,13.23
2018-07-17T05:54:04.347Z,14.10
2018-07-17T05:56:33.076Z,13.67
2018-07-17T05:59:01.807Z,14.00
2018-07-17T06:01:30.606Z,13.67
2018-07-17T06:03:59.398Z,17.27
2018-07-17T06:06:28.225Z,13.40
2018-07-17T06:08:56.980Z,12.70
2018-07-17T06:11:25.750Z,12.70
2018-07-17T06:13:54.558Z,12.20
2018-07-17T06:16:23.291Z,12.63
2018-07-17T06:18:52.068Z,11.73
2018-07-17T06:21:20.764Z,13.00
2018-07-17T06:23:49.469Z,12.17
2018-07-17T06:26:18.176Z,11.87
2018-07-17T06:28:46.901Z,10.97
2018-07-17T06:31:15.645Z,11.70
2018-07-17T06:33:44.428Z,11.60
2018-07-17T06:36:13.156Z,11.50
2018-07-17T06:38:41.860Z,11.50
2018-07-17T06:41:10.639Z,11.13
2018-07-17T06:43:39.403Z,11.77
2018-07-17T06:46:08.145Z,12.10
2018-07-17T06:48:36.854Z,12.00
2018-07-17T06:51:05.573Z,11.90
2018-07-17T06:53:34.344Z,12.03
2018-07-17T06:56:03.142Z,11.57
2018-07-17T06:58:31.900Z,12.57
2018-07-17T07:01:00.653Z,11.57
2018-07-17T07:03:29.347Z,12.80
2018-07-17T07:05:58.122Z,13.13
2018-07-17T07:08:26.826Z,15.57
2018-07-17T07:10:55.619Z,13.43
2018-07-17T07:13:24.301Z,13.43
2018-07-17T07:15:53.045Z,12.67
2018-07-17T07:18:21.762Z,12.10
2018-07-17T07:20:50.467Z,13.47
2018-07-17T07:23:19.213Z,13.87
2018-07-17T07:25:47.974Z,12.70
2018-07-17T07:28:16.825Z,15.03
2018-07-17T07:30:45.646Z,15.87
2018-07-17T07:33:14.355Z,15.90
2018-07-17T07:35:43.263Z,16.03
2018-07-17T07:38:12.042Z,17.07
2018-07-17T07:40:40.886Z,16.17
2018-07-17T07:43:14.204Z,16.10
2018-07-17T07:45:42.958Z,15.30
2018-07-17T07:48:14.945Z,14.73
2018-07-17T07:50:43.681Z,15.47
2018-07-17T07:53:12.427Z,16.40
2018-07-17T07:55:44.280Z,17.97
2018-07-17T07:58:18.484Z,17.77
2018-07-17T08:00:47.258Z,22.43
2018-07-17T08:03:19.886Z,22.03
2018-07-17T08:05:48.617Z,24.10
2018-07-17T08:08:17.299Z,22.80
2018-07-17T08:10:45.990Z,24.40
2018-07-17T08:13:16.550Z,21.07
2018-07-17T08:15:45.254Z,15.37
2018-07-17T08:18:15.960Z,21.70
2018-07-17T08:20:44.760Z,13.03
2018-07-17T08:23:13.539Z,16.50
2018-07-17T08:25:42.274Z,17.60
2018-07-17T08:28:11.031Z,14.20
2018-07-17T08:30:39.761Z,15.60
2018-07-17T08:33:11.930Z,17.27
2018-07-17T08:35:41.646Z,18.97
2018-07-17T08:38:10.281Z,21.33
2018-07-17T08:40:39.044Z,20.87
2018-07-17T08:43:11.182Z,16.10
2018-07-17T08:45:41.986Z,15.43
2018-07-17T08:48:17.333Z,18.23
2018-07-17T08:50:47.347Z,17.30
2018-07-17T08:53:16.026Z,20.83
2018-07-17T08:55:51.066Z,18.40
2018-07-17T08:58:19.887Z,17.67
2018-07-17T09:00:52.374Z,18.03
2018-07-17T09:03:25.155Z,17.93
2018-07-17T09:05:53.972Z,17.33
2018-07-17T09:08:29.774Z,14.13
2018-07-17T09:10:58.524Z,16.83
2018-07-17T09:13:31.409Z,13.70
2018-07-17T09:16:00.122Z,14.40
2018-07-17T09:18:28.868Z,13.73
2018-07-17T09:20:57.609Z,15.33
2018-07-17T09:23:26.369Z,14.53
2018-07-17T09:25:55.232Z,14.37
2018-07-17T09:28:30.469Z,13.47
2018-07-17T09:31:01.043Z,14.83
2018-07-17T09:33:30.878Z,13.77
2018-07-17T09:36:00.920Z,14.23
2018-07-17T09:38:29.949Z,12.93
2018-07-17T09:40:58.664Z,13.10
2018-07-17T09:43:27.411Z,16.57
2018-07-17T09:45:56.107Z,15.17
2018-07-17T09:48:24.796Z,14.83
2018-07-17T09:50:53.602Z,13.00
2018-07-17T09:53:23.301Z,14.17
2018-07-17T09:55:52.034Z,12.73
2018-07-17T09:58:20.796Z,13.00
2018-07-17T10:00:54.710Z,11.23
2018-07-17T10:03:23.545Z,11.27
2018-07-17T10:05:52.306Z,10.83
2018-07-17T10:08:21.041Z,11.87
2018-07-17T10:10:49.705Z,11.23
2018-07-17T10:13:18.444Z,11.60
2018-07-17T10:15:47.155Z,12.20
2018-07-17T10:18:15.925Z,10.63
2018-07-17T10:20:44.633Z,14.87
2018-07-17T10:23:13.460Z,11.63
2018-07-17T10:25:42.236Z,12.00
2018-07-17T10:28:10.973Z,11.33
2018-07-17T10:30:40.733Z,11.30
2018-07-17T10:33:09.548Z,11.78
2018-07-17T10:35:38.230Z,10.98
2018-07-17T10:38:06.951Z,10.90
2018-07-17T10:40:35.635Z,10.70
2018-07-17T10:43:04.363Z,10.25
2018-07-17T10:45:33.446Z,16.77
2018-07-17T10:48:02.184Z,9.45
2018-07-17T10:50:30.970Z,9.80
2018-07-17T10:52:59.714Z,10.45
2018-07-17T10:55:33.143Z,10.50
2018-07-17T10:58:03.026Z,10.40
2018-07-17T11:00:34.366Z,10.23
2018-07-17T11:03:04.711Z,9.90
2018-07-17T11:05:37.057Z,9.25
2018-07-17T11:08:08.188Z,6.97
2018-07-17T11:10:39.215Z,7.55
2018-07-17T11:13:10.412Z,7.72
2018-07-17T11:15:45.017Z,6.10
2018-07-17T11:18:20.675Z,4.03
2018-07-17T11:20:54.641Z,3.50
2018-07-17T11:23:27.421Z,4.17
2018-07-17T11:25:59.334Z,3.35
2018-07-17T11:28:28.058Z,3.27
2018-07-17T11:30:56.746Z,3.40
2018-07-17T11:33:25.559Z,2.90
2018-07-17T11:35:54.230Z,3.62
2018-07-17T11:38:23.027Z,3.22
2018-07-17T11:40:51.711Z,3.08
2018-07-17T11:43:20.472Z,3.60
2018-07-17T11:45:49.169Z,3.20
2018-07-17T11:48:17.845Z,4.17
2018-07-17T11:50:46.620Z,3.20
2018-07-17T11:53:15.360Z,6.25
2018-07-17T11:55:44.741Z,3.30
2018-07-17T11:58:13.506Z,3.10
2018-07-17T12:00:42.230Z,3.75
2018-07-17T12:03:10.982Z,3.90
2018-07-17T12:05:39.803Z,4.00
2018-07-17T12:08:08.546Z,4.42
2018-07-17T12:10:37.322Z,4.20
2018-07-17T12:13:06.249Z,4.15
2018-07-17T12:15:34.967Z,4.00
2018-07-17T12:18:03.645Z,4.00
2018-07-17T12:20:32.691Z,4.00
2018-07-17T12:23:01.251Z,4.33
2018-07-17T12:25:29.982Z,4.53
2018-07-17T12:27:59.682Z,3.90
2018-07-17T12:30:28.455Z,4.35
2018-07-17T12:32:57.251Z,7.42
2018-07-17T12:35:26.007Z,7.60
2018-07-17T12:37:55.151Z,7.08
2018-07-17T12:40:23.910Z,7.20
2018-07-17T12:42:52.882Z,6.87
2018-07-17T12:45:21.575Z,7.70
2018-07-17T12:47:50.280Z,6.87
2018-07-17T12:50:19.048Z,7.37
2018-07-17T12:52:47.927Z,10.23
2018-07-17T12:55:16.683Z,7.83
2018-07-17T12:57:45.421Z,7.50
2018-07-17T13:00:14.262Z,6.65
2018-07-17T13:02:43.074Z,7.30
2018-07-17T13:05:11.804Z,6.92
2018-07-17T13:07:40.811Z,6.42
2018-07-17T13:10:09.530Z,5.97
2018-07-17T13:12:38.359Z,6.20
2018-07-17T13:15:07.161Z,5.62
2018-07-17T13:17:35.846Z,5.62
2018-07-17T13:20:05.267Z,5.05
2018-07-17T13:22:33.919Z,5.58
2018-07-17T13:25:02.729Z,5.30
2018-07-17T13:27:31.387Z,5.10
2018-07-17T13:30:00.088Z,4.35
2018-07-17T13:32:28.842Z,5.65
2018-07-17T13:34:57.560Z,4.70
2018-07-17T13:37:26.249Z,5.08
2018-07-17T13:39:54.952Z,5.67
2018-07-17T13:42:23.702Z,6.10
2018-07-17T13:44:52.507Z,6.78
2018-07-17T13:47:21.247Z,4.85
2018-07-17T13:49:49.968Z,5.40
2018-07-17T13:52:18.794Z,4.20
2018-07-17T13:54:47.647Z,5.08
2018-07-17T13:57:16.585Z,4.95
2018-07-17T13:59:45.258Z,5.45
2018-07-17T14:02:13.927Z,4.30
2018-07-17T14:04:42.751Z,4.87
2018-07-17T14:07:11.452Z,4.62
2018-07-17T14:09:40.110Z,4.37
2018-07-17T14:12:09.450Z,4.10
2018-07-17T14:14:38.112Z,3.70
2018-07-17T14:17:06.866Z,4.00
2018-07-17T14:19:35.548Z,3.33
2018-07-17T14:22:04.318Z,3.70
2018-07-17T14:24:33.099Z,3.70
2018-07-17T14:27:05.763Z,3.72
2018-07-17T14:29:34.480Z,4.90
2018-07-17T14:32:03.187Z,4.67
2018-07-17T14:34:31.940Z,4.12
2018-07-17T14:37:00.688Z,4.03
2018-07-17T14:39:29.441Z,3.08
2018-07-17T14:41:59.387Z,3.40
2018-07-17T14:44:28.086Z,2.87
2018-07-17T14:46:56.944Z,3.08
2018-07-17T14:49:25.754Z,3.10
2018-07-17T14:51:54.510Z,3.10
2018-07-17T14:54:23.308Z,3.22
2018-07-17T14:56:52.034Z,3.25
2018-07-17T14:59:21.022Z,2.90
2018-07-17T15:01:50.643Z,2.80
2018-07-17T15:04:19.951Z,2.65
2018-07-17T15:06:48.686Z,2.20
2018-07-17T15:09:17.378Z,2.60
2018-07-17T15:11:46.060Z,2.70
2018-07-17T15:14:14.792Z,2.40
2018-07-17T15:16:43.455Z,2.30
2018-07-17T15:19:12.159Z,2.67
2018-07-17T15:21:40.863Z,2.77
2018-07-17T15:24:09.693Z,3.10
2018-07-17T15:26:38.427Z,2.80
2018-07-17T15:29:07.180Z,3.00
2018-07-17T15:31:35.970Z,3.22
2018-07-17T15:34:04.711Z,3.20
2018-07-17T15:36:33.709Z,3.57
2018-07-17T15:39:02.443Z,3.40
2018-07-17T15:41:31.160Z,3.75
2018-07-17T15:43:59.907Z,3.20
2018-07-17T15:46:28.608Z,3.37
2018-07-17T15:48:57.348Z,3.67
2018-07-17T15:51:26.097Z,3.37
2018-07-17T15:53:55.299Z,3.83
2018-07-17T15:56:23.934Z,3.37
2018-07-17T15:58:52.628Z,4.30
2018-07-17T16:01:21.563Z,4.20
2018-07-17T16:03:50.386Z,3.50
2018-07-17T16:06:19.965Z,3.53
2018-07-17T16:08:48.500Z,4.20
2018-07-17T16:11:17.487Z,3.73
2018-07-17T16:13:46.412Z,4.50
2018-07-17T16:16:14.974Z,4.13
2018-07-17T16:18:43.711Z,3.67
2018-07-17T16:21:12.545Z,3.50
2018-07-17T16:23:41.323Z,3.63
2018-07-17T16:26:10.140Z,3.90
2018-07-17T16:28:38.838Z,3.23
2018-07-17T16:31:07.521Z,3.83
2018-07-17T16:33:36.373Z,3.60
2018-07-17T16:36:05.166Z,3.73
2018-07-17T16:38:33.918Z,3.47
2018-07-17T16:41:03.226Z,3.47
2018-07-17T16:43:31.950Z,3.23
2018-07-17T16:46:00.792Z,3.20
2018-07-17T16:48:29.587Z,3.77
2018-07-17T16:50:59.744Z,3.17
2018-07-17T16:53:29.580Z,3.70
2018-07-17T16:58:06.727Z,3.70
2018-07-17T17:03:05.145Z,4.00
2018-07-17T17:05:34.157Z,3.97
2018-07-17T17:08:03.049Z,3.93
2018-07-17T17:10:31.746Z,3.77
2018-07-17T17:13:00.809Z,4.03
2018-07-17T17:15:29.767Z,4.10
2018-07-17T17:17:58.930Z,4.00
2018-07-17T17:20:27.671Z,4.33
2018-07-17T17:22:56.486Z,4.13
2018-07-17T17:25:25.389Z,4.33
2018-07-17T17:27:54.050Z,4.10
2018-07-17T17:30:22.898Z,4.20
2018-07-17T17:32:51.775Z,4.30
2018-07-17T17:35:21.083Z,4.30
2018-07-17T17:37:50.951Z,4.40
2018-07-17T17:40:19.820Z,4.70
2018-07-17T17:42:49.106Z,4.83
2018-07-17T17:45:19.357Z,4.00
2018-07-17T17:47:48.398Z,5.07
2018-07-17T17:50:17.188Z,4.70
2018-07-17T17:52:45.916Z,4.60
2018-07-17T17:55:14.612Z,4.77
2018-07-17T17:57:43.356Z,4.67
2018-07-17T18:00:12.422Z,4.57
2018-07-17T18:02:41.206Z,4.70
2018-07-17T18:05:09.964Z,4.60
2018-07-17T18:07:38.878Z,4.97
2018-07-17T18:10:07.567Z,4.90
2018-07-17T18:12:36.358Z,5.60
2018-07-17T18:15:05.150Z,5.63
2018-07-17T18:17:34.253Z,5.00
2018-07-17T18:20:03.197Z,5.10
2018-07-17T18:22:32.903Z,5.60
2018-07-17T18:25:02.069Z,5.70
2018-07-17T18:27:30.842Z,5.33
2018-07-17T18:30:00.104Z,5.70
2018-07-17T18:32:28.905Z,5.87
2018-07-17T18:34:57.618Z,5.43
2018-07-17T18:37:26.336Z,5.73
2018-07-17T18:39:55.137Z,6.57
2018-07-17T18:42:23.812Z,5.53
2018-07-17T18:44:52.564Z,6.30
2018-07-17T18:47:21.295Z,5.03
2018-07-17T18:50:12.000Z,6.30
2018-07-17T18:52:19.918Z,5.90
2018-07-17T18:54:48.586Z,5.50
2018-07-17T18:57:17.344Z,5.67
2018-07-17T18:59:46.135Z,6.10
2018-07-17T19:02:14.746Z,5.77
2018-07-17T19:04:43.460Z,6.23
2018-07-17T19:07:12.203Z,6.20
2018-07-17T19:09:41.110Z,6.33
2018-07-17T19:12:09.933Z,6.43
2018-07-17T19:14:38.816Z,6.77
2018-07-17T19:17:07.558Z,6.73
2018-07-17T19:19:36.718Z,7.00
2018-07-17T19:22:05.471Z,7.13
2018-07-17T19:24:34.500Z,6.03
2018-07-17T19:27:03.980Z,6.93
2018-07-17T19:29:32.775Z,6.57
2018-07-17T19:32:02.777Z,6.60
2018-07-17T19:34:31.852Z,6.17
2018-07-17T19:37:00.524Z,5.73
2018-07-17T19:39:29.257Z,6.17
2018-07-17T19:41:57.967Z,5.90
2018-07-17T19:44:26.701Z,6.57
2018-07-17T19:46:55.526Z,6.07
2018-07-17T19:49:24.333Z,6.70
2018-07-17T19:51:53.168Z,6.90
2018-07-17T19:54:22.064Z,6.63
2018-07-17T19:56:50.818Z,7.30
2018-07-17T19:59:19.538Z,6.77
2018-07-17T20:01:54.167Z,7.13
2018-07-17T20:04:36.394Z,5.70
2018-07-17T20:07:05.637Z,6.40
2018-07-17T20:09:34.495Z,6.00
2018-07-17T20:12:04.553Z,6.17
2018-07-17T20:14:33.261Z,5.07
2018-07-17T20:17:01.981Z,5.57
2018-07-17T20:19:30.697Z,5.47
2018-07-17T20:21:59.437Z,5.50
2018-07-17T20:24:28.347Z,5.23
2018-07-17T20:26:57.103Z,5.60
2018-07-17T20:29:26.343Z,5.97
2018-07-17T20:31:55.707Z,7.30
2018-07-17T20:34:24.545Z,8.10
2018-07-17T20:36:53.239Z,8.70
2018-07-17T20:39:21.965Z,8.50
2018-07-17T20:41:51.610Z,8.60
2018-07-17T20:44:20.365Z,9.97
2018-07-17T20:46:51.005Z,10.00
2018-07-17T20:49:19.758Z,11.13
2018-07-17T20:51:48.532Z,10.43
2018-07-17T20:54:17.187Z,10.67
2018-07-17T20:56:46.664Z,12.77
2018-07-17T20:59:15.744Z,11.20
2018-07-17T21:01:44.607Z,12.70
2018-07-17T21:04:13.373Z,12.37
2018-07-17T21:06:42.237Z,15.10
2018-07-17T21:09:12.115Z,15.07
2018-07-17T21:11:41.078Z,15.17
2018-07-17T21:14:10.740Z,14.90
2018-07-17T21:16:39.587Z,14.63
2018-07-17T21:19:08.389Z,15.07
2018-07-17T21:21:37.200Z,16.23
2018-07-17T21:24:06.017Z,15.67
2018-07-17T21:26:34.863Z,16.40
2018-07-17T21:29:03.681Z,16.70
2018-07-17T21:31:32.444Z,15.30
2018-07-17T21:34:01.227Z,17.07
2018-07-17T21:36:30.105Z,16.70
2018-07-17T21:38:58.849Z,15.73
2018-07-17T21:41:27.575Z,17.00
2018-07-17T21:43:56.325Z,16.73
2018-07-17T21:46:25.021Z,16.07
2018-07-17T21:48:53.707Z,15.73
2018-07-17T21:51:22.458Z,16.60
2018-07-17T21:53:51.155Z,16.37
2018-07-17T21:56:19.898Z,17.13
2018-07-17T21:58:48.642Z,16.37
2018-07-17T22:01:17.497Z,18.20
2018-07-17T22:03:46.210Z,18.70
2018-07-17T22:06:14.916Z,18.97
2018-07-17T22:08:44.617Z,18.20
2018-07-17T22:11:13.356Z,19.03
2018-07-17T22:13:42.021Z,18.10
2018-07-17T22:16:10.736Z,18.40
2018-07-17T22:18:39.479Z,17.20
2018-07-17T22:21:08.288Z,19.07
2018-07-17T22:23:37.008Z,19.83
2018-07-17T22:26:05.788Z,20.43
2018-07-17T22:28:34.563Z,18.37
2018-07-17T22:31:03.267Z,19.73
2018-07-17T22:33:31.990Z,20.50
2018-07-17T22:36:00.758Z,20.23
2018-07-17T22:38:29.531Z,18.17
2018-07-17T22:40:58.361Z,20.47
2018-07-17T22:43:27.125Z,20.63
2018-07-17T22:45:55.864Z,19.70
2018-07-17T22:48:24.593Z,20.70
2018-07-17T22:50:53.808Z,20.87
2018-07-17T22:53:22.511Z,21.77
2018-07-17T22:55:51.301Z,20.87
2018-07-17T22:58:20.034Z,22.13
2018-07-17T23:00:48.876Z,20.83
2018-07-17T23:03:17.590Z,22.03
2018-07-17T23:05:46.316Z,19.17
2018-07-17T23:08:15.030Z,21.63
2018-07-17T23:10:43.734Z,22.47
2018-07-17T23:13:12.498Z,21.20
2018-07-17T23:15:41.186Z,22.13
2018-07-17T23:18:09.897Z,21.77
2018-07-17T23:20:38.700Z,23.53
2018-07-17T23:23:07.424Z,22.97
2018-07-17T23:25:36.112Z,22.13
2018-07-17T23:28:04.849Z,21.33
2018-07-17T23:30:33.608Z,22.47
2018-07-17T23:33:02.266Z,22.50
2018-07-17T23:35:31.000Z,23.33
2018-07-17T23:38:00.182Z,22.37
2018-07-17T23:40:28.936Z,23.23
2018-07-17T23:42:57.709Z,23.57
2018-07-17T23:45:26.437Z,21.43
2018-07-17T23:47:55.128Z,23.50
2018-07-17T23:50:23.880Z,23.07
2018-07-17T23:52:52.579Z,21.97
2018-07-17T23:55:21.284Z,23.30
2018-07-17T23:57:49.988Z,22.63
